Salford, United Kingdom
Current Conditions -  °F | °C
As of 1:20 AM on Friday 28 Nov 2014 (Local Time) from EGCC Reporting Station
Few Clouds Few Clouds  
Wind Chill: 40°   Ceiling: Unl
Heat Index: 45°   Visibility: 4mi
Dew Point: 45°   Wind: 9mph
Humidity: 100%   Direction: 130°SE
Pressure: 29.59"   Gusts: NA
Location:  53.48°N, 2.31°W
Report Text: EGCC 280120Z 13008KT 6000 FEW020 07/07 Q1002
Loading
Personal Weather Stations






























Interactive Weather Map New forecast layout! Learn more

10-Day Weather Forecast

Advertisements
Track Severe Weather on mobile